map of MEG home
MEG - Airport
Location
City:  Malange, Malange, Angola
ICAO:FNMA
IATA:MEG

Details
Type:Airport (Aerodrome, Airfield)
Latitude:931'30"S (-9.525085)
Longitude:1618'45"E (16.312406)
Datum:WGS 1984
Elevation:3868 ft (1179 m)
Variation:2.63W (WMM2015 magnetic declination)
0.16 annual change
Runways:1
Longest:7283 × 98 ft (2220 × 30 m), paved

Time
Time Zone:UTC+1
Local Time:

Weather
METAR:FNMA 181100Z 27007KT 9999 SCT015 OVC100 22/20 Q1018

Related Locations
Nearby:
Farthest:PLPA: 12159 mi / 19568 km
Palmyra Island Atoll [Palmyra Airport (Cooper)], UM

Find:

   beyond  
but within

Other Information
Maps:
NOTAMs:
Links:
Sources:

  
  • flag of Angola
  

Sectional Chart

Flight Planning
at skyvector.com

Satellite Image

Google Maps Satellite view

 

Copyright © 2004-2018 Karl L. Swartz. All rights reserved.
The Great Circle Mapper name and logo are trademarks of the Great Circle Mapper.
All other trademarks mentioned herein belong to their respective owners.
Please see credits for attibutions and further copyright information.

  Follow gcmap on Facebook Follow gcmap on Twitter Follow gcmap on Google+ GCmap on LinkedIn

hCard Microformat

Geo Microformat